Impacts TAF Board
For situational awareness. Not to be used for flight planning purposes.
IDs:

KSAN - San Diego Intl Arpt, CA, US

Issued at 2325 UTC 19 Jan 2019
Updated at 2328 UTC 19 Jan 2019
Potential Impact None Slight Moderate High
Time2251Z 20/00Z 20/01Z 20/02Z 20/03Z 20/04Z 20/05Z 20/06Z 20/07Z 20/08Z 20/09Z 20/10Z 20/11Z 20/12Z>>
Type OBS PRVL PRVL PRVL PRVL PRVL PRVL PRVL PRVL PRVL PRVL PRVL PRVL PRVL
VIS 10 >6 >6 >6 >6 >6 >6 >6 >6 >6 >6 >6 >6 >6
CIG -- -- -- -- -- -- -- -- -- -- -- -- -- --
Cover FEW SCT SCT SCT SCT SCT SCT SCT SCT SCT SCT SCT SCT SCT
FltCat VFR VFR VFR VFR VFR VFR VFR VFR VFR VFR VFR VFR VFR VFR
WX -- -- -- -- -- -- -- -- -- -- -- -- -- --
WDir 300 VRB VRB VRB VRB VRB VRB VRB VRB VRB VRB VRB VRB VRB
WSpd 7 4 4 4 4 4 4 4 4 4 4 4 4 4
WGst -- -- -- -- -- -- -- -- -- -- -- -- -- --
Raw TAF
KSAN 192325Z 2000/2106 VRB04KT P6SM SCT250
  FM202000 30008KT P6SM SCT250
  FM210000 VRB04KT P6SM SCT250
  FM210500 VRB04KT P6SM BKN015


Raw METAR
KSAN 192251Z 30007KT 10SM FEW250 22/11 A3015 RMK AO2 SLP209 T02170106
KSAN 192151Z 29008KT 10SM FEW250 23/07 A3016 RMK AO2 SLP213 T02280072
KSAN 192051Z 30007KT 10SM FEW250 22/07 A3019 RMK AO2 SLP222 T02170072 58028

METAR Board
Radar Display
Forecast Discussion
For situational awareness. Not to be used for flight planning purposes.